Time,TemperatureF,DewpointF,PressureIn,WindDirection,WindDirectionDegrees,WindSpeedMPH,WindSpeedGustMPH,Humidity,HourlyPrecipIn,Conditions,Clouds,dailyrainin,SoftwareType,DateUTC
2013-07-02 00:00:00,63.1,61.9,29.75,South,180,1.0,6.0,96,0.00,,,-99.99,WeatherLink 5.6,2013-07-02 04:00:00,
2013-07-02 00:30:00,63.1,61.9,29.74,South,180,1.0,6.0,96,0.00,,,-99.99,WeatherLink 5.6,2013-07-02 04:30:00,
2013-07-02 01:00:00,63.4,62.2,29.74,South,180,0.0,4.0,96,0.00,,,-99.99,WeatherLink 5.6,2013-07-02 05:00:00,
2013-07-02 01:30:00,63.7,62.5,29.73,North,-999,0.0,0.0,96,0.00,,,-99.99,WeatherLink 5.6,2013-07-02 05:30:00,
2013-07-02 02:00:00,63.6,61.8,29.73,South,180,1.0,7.0,94,0.00,,,-99.99,WeatherLink 5.6,2013-07-02 06:00:00,
2013-07-02 03:00:00,64.0,62.2,29.73,South,180,5.0,13.0,94,0.00,,,-99.99,WeatherLink 5.6,2013-07-02 07:00:00,
2013-07-02 03:30:00,63.9,62.1,29.73,South,180,6.0,13.0,94,0.00,,,-99.99,WeatherLink 5.6,2013-07-02 07:30:00,
2013-07-02 04:00:00,63.5,61.7,29.73,South,180,6.0,18.0,94,0.00,,,-99.99,WeatherLink 5.6,2013-07-02 08:00:00,
2013-07-02 04:30:00,63.2,61.7,29.74,South,180,4.0,13.0,95,0.00,,,-99.99,WeatherLink 5.6,2013-07-02 08:30:00,
2013-07-02 05:00:00,63.3,61.5,29.75,South,180,5.0,17.0,94,0.01,,,-99.99,WeatherLink 5.6,2013-07-02 09:00:00,
2013-07-02 05:30:00,63.4,61.6,29.75,South,180,3.0,11.0,94,0.01,,,-99.99,WeatherLink 5.6,2013-07-02 09:30:00,
2013-07-02 06:00:00,63.3,61.5,29.77,South,180,3.0,10.0,94,0.00,,,-99.99,WeatherLink 5.6,2013-07-02 10:00:00,
2013-07-02 06:30:00,62.7,61.2,29.80,South,180,2.0,10.0,95,0.00,,,-99.99,WeatherLink 5.6,2013-07-02 10:30:00,
2013-07-02 07:00:00,62.9,61.4,29.81,South,180,3.0,9.0,95,0.02,,,-99.99,WeatherLink 5.6,2013-07-02 11:00:00,
2013-07-02 07:30:00,62.5,61.3,29.82,SSE,157,2.0,8.0,96,0.03,,,-99.99,WeatherLink 5.6,2013-07-02 11:30:00,
2013-07-02 08:00:00,63.2,62.0,29.83,South,180,3.0,12.0,96,0.01,,,-99.99,WeatherLink 5.6,2013-07-02 12:00:00,
2013-07-02 08:30:00,63.6,62.1,29.84,South,180,4.0,10.0,95,0.00,,,-99.99,WeatherLink 5.6,2013-07-02 12:30:00,
2013-07-02 09:00:00,63.9,62.7,29.85,South,180,2.0,11.0,96,0.00,,,-99.99,WeatherLink 5.6,2013-07-02 13:00:00,
2013-07-02 09:30:00,64.9,63.4,29.85,South,180,3.0,11.0,95,0.00,,,-99.99,WeatherLink 5.6,2013-07-02 13:30:00,
2013-07-02 10:00:00,66.2,64.4,29.85,South,180,2.0,12.0,94,0.00,,,-99.99,WeatherLink 5.6,2013-07-02 14:00:00,
2013-07-02 10:30:00,67.2,64.5,29.85,South,180,5.0,16.0,91,0.01,,,-99.99,WeatherLink 5.6,2013-07-02 14:30:00,
2013-07-02 11:00:00,68.0,64.6,29.85,South,180,6.0,16.0,89,0.01,,,-99.99,WeatherLink 5.6,2013-07-02 15:00:00,
2013-07-02 11:30:00,70.9,66.5,29.85,South,180,6.0,17.0,86,0.00,,,-99.99,WeatherLink 5.6,2013-07-02 15:30:00,
2013-07-02 12:00:00,71.6,67.2,29.85,South,180,5.0,15.0,86,0.00,,,-99.99,WeatherLink 5.6,2013-07-02 16:00:00,
2013-07-02 12:30:00,72.6,67.1,29.84,South,180,5.0,13.0,83,0.00,,,-99.99,WeatherLink 5.6,2013-07-02 16:30:00,
2013-07-02 13:00:00,73.7,67.1,29.84,South,180,4.0,12.0,80,0.00,,,-99.99,WeatherLink 5.6,2013-07-02 17:00:00,
2013-07-02 13:30:00,73.9,66.2,29.84,South,180,5.0,14.0,77,0.00,,,-99.99,WeatherLink 5.6,2013-07-02 17:30:00,
2013-07-02 14:00:00,74.8,67.5,29.83,South,180,3.0,11.0,78,0.00,,,-99.99,WeatherLink 5.6,2013-07-02 18:00:00,
2013-07-02 14:30:00,74.4,67.5,29.83,SSE,157,4.0,12.0,79,0.00,,,-99.99,WeatherLink 5.6,2013-07-02 18:30:00,
2013-07-02 15:00:00,76.0,68.3,29.81,SE,135,3.0,11.0,77,0.00,,,-99.99,WeatherLink 5.6,2013-07-02 19:00:00,
2013-07-02 15:30:00,76.9,68.0,29.81,South,180,3.0,10.0,74,0.00,,,-99.99,WeatherLink 5.6,2013-07-02 19:30:00,
2013-07-02 16:00:00,76.5,67.2,29.81,South,180,4.0,12.0,73,0.00,,,-99.99,WeatherLink 5.6,2013-07-02 20:00:00,
2013-07-02 16:30:00,77.4,67.3,29.81,South,180,2.0,12.0,71,0.00,,,-99.99,WeatherLink 5.6,2013-07-02 20:30:00,
2013-07-02 17:00:00,77.4,65.6,29.81,South,180,2.0,10.0,67,0.00,,,-99.99,WeatherLink 5.6,2013-07-02 21:00:00,
2013-07-02 17:30:00,76.9,66.8,29.81,South,180,1.0,14.0,71,0.00,,,-99.99,WeatherLink 5.6,2013-07-02 21:30:00,
2013-07-02 18:00:00,77.1,66.6,29.81,SSE,157,0.0,4.0,70,0.00,,,-99.99,WeatherLink 5.6,2013-07-02 22:00:00,
2013-07-02 18:30:00,70.4,65.7,29.83,SE,135,3.0,18.0,85,0.06,,,-99.99,WeatherLink 5.6,2013-07-02 22:30:00,
2013-07-02 19:00:00,68.7,65.0,29.86,South,180,5.0,22.0,88,0.21,,,-99.99,WeatherLink 5.6,2013-07-02 23:00:00,
2013-07-02 19:30:00,67.6,65.8,29.87,SSW,202,1.0,11.0,94,0.17,,,-99.99,WeatherLink 5.6,2013-07-02 23:30:00,
2013-07-02 20:00:00,67.0,65.5,29.88,South,180,1.0,10.0,95,0.02,,,-99.99,WeatherLink 5.6,2013-07-03 00:00:00,
2013-07-02 20:30:00,66.5,65.3,29.88,SW,225,1.0,7.0,96,0.00,,,-99.99,WeatherLink 5.6,2013-07-03 00:30:00,
2013-07-02 21:00:00,66.0,64.8,29.88,South,180,1.0,7.0,96,0.00,,,-99.99,WeatherLink 5.6,2013-07-03 01:00:00,
2013-07-02 21:30:00,66.2,65.0,29.89,South,180,4.0,15.0,96,0.00,,,-99.99,WeatherLink 5.6,2013-07-03 01:30:00,
2013-07-02 22:00:00,65.6,64.1,29.90,South,180,4.0,12.0,95,0.00,,,-99.99,WeatherLink 5.6,2013-07-03 02:00:00,
2013-07-02 22:30:00,66.0,64.5,29.90,South,180,6.0,12.0,95,0.00,,,-99.99,WeatherLink 5.6,2013-07-03 02:30:00,
2013-07-02 23:00:00,65.7,64.2,29.91,South,180,5.0,12.0,95,0.00,,,-99.99,WeatherLink 5.6,2013-07-03 03:00:00,
2013-07-02 23:30:00,65.6,64.1,29.90,South,180,6.0,14.0,95,0.00,,,-99.99,WeatherLink 5.6,2013-07-03 03:30:00,